KMAF

Midland International Air and Space Port Airport

Midland, Texas, USA
METAR KMAF 222353Z 11006KT 10SM CLR 08/01 A3012 RMK AO2 SLP196 T00830006 10100 20017 55001
Observed Flight Rules
Feb-22 @ 23:53 UTC (33 minutes ago) Visual Flight Rules
Wind Visibility Clouds
110° at 6 knots 10 miles
  • Clear skies
Temperatures Readings
Current 8°C / 46°F
Dewpoint 1°C / 34°F
Humidity 62%
Altimeter 30.12" Hg
Pressure 1019.6 hPa
Elevation 874
METAR KMAF 222353Z 11006KT 10SM CLR 08/01 A3012 RMK AO2 SLP196 T00830006 10100 20017 55001
Observed Flight Rules
Feb-22 @ 23:53 UTC
(33 minutes ago)
VFR
Wind Visibility
110° at 6 knots 10 miles
Clouds
  • Clear skies
Temperature Dewpoint
8°C / 46°F 1°C / 34°F
Humidity Altimeter Pressure
62% 30.12" Hg 1019.6 hPa